createdAt,value
2022-11-24T00:00:33.209Z,60.91
2022-11-24T00:01:27.974Z,60.88
2022-11-24T00:02:01.249Z,60.34
2022-11-24T00:02:34.601Z,60.00
2022-11-24T00:03:07.927Z,59.88
2022-11-24T00:03:41.442Z,59.74
2022-11-24T00:04:14.699Z,59.57
2022-11-24T00:04:47.876Z,59.27
2022-11-24T00:05:21.131Z,58.90
2022-11-24T00:05:54.398Z,58.74
2022-11-24T00:06:27.947Z,58.90
2022-11-24T00:07:00.981Z,59.36
2022-11-24T00:07:34.186Z,60.13
2022-11-24T00:08:07.488Z,60.69
2022-11-24T00:08:41.413Z,61.39
2022-11-24T00:09:14.648Z,62.32
2022-11-24T00:09:47.976Z,62.83
2022-11-24T00:10:21.351Z,63.57
2022-11-24T00:10:54.601Z,64.13
2022-11-24T00:11:31.881Z,64.11
2022-11-24T00:12:05.115Z,63.80
2022-11-24T00:12:38.348Z,63.26
2022-11-24T00:13:11.466Z,62.98
2022-11-24T00:13:45.212Z,62.45
2022-11-24T00:14:18.288Z,61.89
2022-11-24T00:14:51.383Z,61.59
2022-11-24T00:15:24.485Z,61.35
2022-11-24T00:16:04.227Z,61.07
2022-11-24T00:16:37.949Z,60.79
2022-11-24T00:17:11.355Z,60.76
2022-11-24T00:17:44.845Z,60.39
2022-11-24T00:18:18.081Z,59.81
2022-11-24T00:18:52.478Z,59.63
2022-11-24T00:19:25.787Z,59.41
2022-11-24T00:19:58.958Z,58.91
2022-11-24T00:20:32.008Z,58.78
2022-11-24T00:21:05.392Z,59.00
2022-11-24T00:21:38.664Z,59.46
2022-11-24T00:22:11.882Z,60.00
2022-11-24T00:22:45.052Z,60.60
2022-11-24T00:23:18.199Z,61.14
2022-11-24T00:23:51.970Z,61.98
2022-11-24T00:24:24.996Z,62.57
2022-11-24T00:24:58.010Z,63.43
2022-11-24T00:25:31.053Z,64.07
2022-11-24T00:26:11.378Z,64.16
2022-11-24T00:26:44.560Z,64.06
2022-11-24T00:27:17.732Z,63.59
2022-11-24T00:27:52.469Z,62.76
2022-11-24T00:28:25.635Z,61.83
2022-11-24T00:29:00.630Z,61.37
2022-11-24T00:29:33.902Z,61.06
2022-11-24T00:30:07.379Z,60.50
2022-11-24T00:30:40.669Z,60.27
2022-11-24T00:31:17.563Z,60.20
2022-11-24T00:31:50.779Z,60.08
2022-11-24T00:32:23.894Z,59.51
2022-11-24T00:32:57.053Z,59.05
2022-11-24T00:33:30.178Z,58.58
2022-11-24T00:34:04.734Z,58.56
2022-11-24T00:34:37.857Z,58.68
2022-11-24T00:35:11.104Z,59.35
2022-11-24T00:35:44.273Z,59.98
2022-11-24T00:36:18.512Z,60.69
2022-11-24T00:36:51.723Z,61.37
2022-11-24T00:37:24.907Z,62.12
2022-11-24T00:37:57.982Z,62.93
2022-11-24T00:38:31.524Z,63.73
2022-11-24T00:39:11.959Z,64.07
2022-11-24T00:39:45.081Z,63.84
2022-11-24T00:40:18.296Z,63.63
2022-11-24T00:40:51.670Z,63.18
2022-11-24T00:41:25.519Z,62.69
2022-11-24T00:41:58.634Z,62.19
2022-11-24T00:42:31.982Z,61.94
2022-11-24T00:43:05.174Z,61.66
2022-11-24T00:43:38.333Z,61.41
2022-11-24T00:44:11.423Z,61.17
2022-11-24T00:44:44.806Z,60.97
2022-11-24T00:45:17.860Z,60.92
2022-11-24T00:45:51.153Z,60.87
2022-11-24T00:46:24.479Z,60.91
2022-11-24T00:46:57.851Z,60.83
2022-11-24T00:47:33.073Z,60.62
2022-11-24T00:48:06.398Z,60.36
2022-11-24T00:48:39.817Z,60.36
2022-11-24T00:49:12.899Z,60.35
2022-11-24T00:49:45.921Z,60.33
2022-11-24T00:50:19.210Z,60.43
2022-11-24T00:50:56.229Z,60.32
2022-11-24T00:51:32.706Z,60.21
2022-11-24T00:52:05.752Z,60.17
2022-11-24T00:52:39.120Z,60.11
2022-11-24T00:53:12.102Z,60.16
2022-11-24T00:53:45.317Z,60.16
2022-11-24T00:54:18.623Z,60.20
2022-11-24T00:54:51.920Z,60.18
2022-11-24T00:55:25.168Z,60.12
2022-11-24T00:55:58.326Z,60.15
2022-11-24T00:56:31.475Z,60.16
2022-11-24T00:57:04.589Z,60.19
2022-11-24T00:57:37.663Z,60.12
2022-11-24T00:58:10.787Z,59.58
2022-11-24T00:58:43.920Z,59.02
2022-11-24T00:59:17.400Z,58.16
2022-11-24T00:59:50.646Z,57.54
2022-11-24T01:00:23.659Z,57.38
2022-11-24T01:01:01.846Z,57.66
2022-11-24T01:01:35.075Z,58.06
2022-11-24T01:02:08.233Z,58.87
2022-11-24T01:02:41.451Z,59.64
2022-11-24T01:03:14.828Z,60.34
2022-11-24T01:03:48.377Z,61.00
2022-11-24T01:04:21.410Z,61.70
2022-11-24T01:04:54.598Z,62.48
2022-11-24T01:05:27.731Z,63.16
2022-11-24T01:06:04.886Z,63.83
2022-11-24T01:06:38.028Z,64.24
2022-11-24T01:07:11.393Z,64.41
2022-11-24T01:07:44.856Z,64.48
2022-11-24T01:08:18.165Z,64.23
2022-11-24T01:08:51.308Z,63.89
2022-11-24T01:09:24.337Z,63.52
2022-11-24T01:09:57.291Z,63.28
2022-11-24T01:10:30.412Z,63.12
2022-11-24T01:11:12.723Z,63.10
2022-11-24T01:12:04.505Z,63.03
2022-11-24T01:12:37.780Z,63.01
2022-11-24T01:13:12.687Z,63.21
2022-11-24T01:13:47.020Z,63.29
2022-11-24T01:14:20.587Z,63.41
2022-11-24T01:14:53.612Z,63.48
2022-11-24T01:15:26.864Z,63.41
2022-11-24T01:15:59.976Z,63.46
2022-11-24T01:16:34.650Z,63.51
2022-11-24T01:17:07.722Z,63.51
2022-11-24T01:17:40.758Z,63.62
2022-11-24T01:18:13.746Z,63.68
2022-11-24T01:18:47.001Z,63.76
2022-11-24T01:19:20.266Z,63.73
2022-11-24T01:19:53.412Z,63.76
2022-11-24T01:20:26.459Z,63.89
2022-11-24T01:20:59.905Z,63.91
2022-11-24T01:21:32.878Z,63.93
2022-11-24T01:22:06.033Z,63.99
2022-11-24T01:22:39.701Z,64.01
2022-11-24T01:23:12.732Z,64.06
2022-11-24T01:23:46.011Z,64.10
2022-11-24T01:24:19.258Z,64.13
2022-11-24T01:24:52.306Z,64.19
2022-11-24T01:25:25.350Z,64.16
2022-11-24T01:25:58.446Z,64.26
2022-11-24T01:26:31.443Z,64.26
2022-11-24T01:27:04.498Z,64.29
2022-11-24T01:27:38.025Z,64.33
2022-11-24T01:28:11.024Z,64.45
2022-11-24T01:28:47.331Z,64.50
2022-11-24T01:29:20.848Z,64.57
2022-11-24T01:29:53.912Z,64.66
2022-11-24T01:30:27.104Z,64.72
2022-11-24T01:31:01.023Z,64.71
2022-11-24T01:31:34.184Z,64.74
2022-11-24T01:32:07.149Z,64.73
2022-11-24T01:32:40.444Z,64.68
2022-11-24T01:33:13.541Z,64.70
2022-11-24T01:33:46.811Z,64.78
2022-11-24T01:34:19.959Z,64.70
2022-11-24T01:34:52.977Z,64.67
2022-11-24T01:35:25.888Z,64.65
2022-11-24T01:35:58.989Z,64.62
2022-11-24T01:36:32.283Z,64.59
2022-11-24T01:37:05.476Z,64.64
2022-11-24T01:37:38.714Z,64.69
2022-11-24T01:38:11.871Z,64.70
2022-11-24T01:38:44.999Z,64.81
2022-11-24T01:39:18.149Z,64.83
2022-11-24T01:39:51.306Z,64.89
2022-11-24T01:40:24.385Z,64.98
2022-11-24T01:41:05.227Z,65.09
2022-11-24T01:41:38.117Z,65.05
2022-11-24T01:42:11.171Z,65.04
2022-11-24T01:42:48.128Z,65.36
2022-11-24T01:43:21.935Z,65.49
2022-11-24T01:43:56.142Z,65.49
2022-11-24T01:44:30.853Z,65.46
2022-11-24T01:45:22.774Z,65.44
2022-11-24T01:45:56.263Z,65.42
2022-11-24T01:46:31.242Z,65.52
2022-11-24T01:47:20.200Z,65.50
2022-11-24T01:47:53.597Z,65.47
2022-11-24T01:48:35.359Z,65.62
2022-11-24T01:49:08.347Z,65.69
2022-11-24T01:49:43.778Z,65.71
2022-11-24T01:50:17.193Z,65.76
2022-11-24T01:50:54.054Z,65.79
2022-11-24T01:51:29.634Z,65.86
2022-11-24T01:52:19.902Z,65.89
2022-11-24T01:52:54.268Z,65.61
2022-11-24T01:53:27.361Z,65.31
2022-11-24T01:54:06.596Z,65.07
2022-11-24T01:54:43.266Z,64.81
2022-11-24T01:55:18.542Z,64.73
2022-11-24T01:55:52.246Z,64.53
2022-11-24T01:56:25.743Z,64.34
2022-11-24T01:57:02.210Z,64.17
2022-11-24T01:57:41.729Z,63.84
2022-11-24T01:58:19.251Z,64.06
2022-11-24T01:58:54.431Z,63.61
2022-11-24T01:59:27.674Z,63.25
2022-11-24T02:00:04.308Z,62.26
2022-11-24T02:00:38.959Z,62.16
2022-11-24T02:01:12.243Z,61.54
2022-11-24T02:01:46.465Z,60.92
2022-11-24T02:02:19.915Z,60.39
2022-11-24T02:02:53.484Z,59.72
2022-11-24T02:03:29.076Z,59.14
2022-11-24T02:04:02.980Z,58.54
2022-11-24T02:04:36.834Z,58.43
2022-11-24T02:05:19.215Z,58.48
2022-11-24T02:06:03.243Z,58.84
2022-11-24T02:06:37.467Z,59.43
2022-11-24T02:07:11.721Z,60.57
2022-11-24T02:07:45.199Z,61.32
2022-11-24T02:08:23.241Z,62.23
2022-11-24T02:09:11.352Z,62.80
2022-11-24T02:09:49.860Z,63.99
2022-11-24T02:10:23.854Z,64.23
2022-11-24T02:10:57.041Z,63.95
2022-11-24T02:11:33.667Z,63.55
2022-11-24T02:12:06.736Z,63.15
2022-11-24T02:12:41.428Z,62.45
2022-11-24T02:13:15.131Z,61.97
2022-11-24T02:13:48.472Z,61.74
2022-11-24T02:14:22.560Z,61.66
2022-11-24T02:14:56.097Z,61.64
2022-11-24T02:15:29.522Z,61.64
2022-11-24T02:16:03.451Z,61.82
2022-11-24T02:16:36.933Z,61.81
2022-11-24T02:17:10.037Z,61.86
2022-11-24T02:17:43.065Z,61.90
2022-11-24T02:18:16.047Z,61.95
2022-11-24T02:18:49.250Z,62.01
2022-11-24T02:19:40.514Z,61.98
2022-11-24T02:20:13.613Z,61.95
2022-11-24T02:20:46.682Z,61.96
2022-11-24T02:21:20.064Z,61.91
2022-11-24T02:21:53.578Z,61.83
2022-11-24T02:22:33.809Z,61.82
2022-11-24T02:23:19.591Z,61.78
2022-11-24T02:23:58.737Z,61.91
2022-11-24T02:24:37.716Z,61.91
2022-11-24T02:25:17.022Z,61.96
2022-11-24T02:25:55.890Z,62.10
2022-11-24T02:26:45.892Z,61.95
2022-11-24T02:27:19.692Z,62.22
2022-11-24T02:27:54.193Z,62.13
2022-11-24T02:28:29.146Z,61.90
2022-11-24T02:29:02.492Z,61.61
2022-11-24T02:29:35.450Z,61.50
2022-11-24T02:30:08.815Z,61.28
2022-11-24T02:30:42.350Z,61.16
2022-11-24T02:31:15.545Z,61.12
2022-11-24T02:31:51.411Z,61.09
2022-11-24T02:32:24.492Z,61.19
2022-11-24T02:32:57.562Z,61.36
2022-11-24T02:33:30.609Z,61.52
2022-11-24T02:34:03.635Z,61.76
2022-11-24T02:34:36.870Z,61.86
2022-11-24T02:35:10.568Z,62.04
2022-11-24T02:35:43.892Z,62.26
2022-11-24T02:36:17.318Z,62.41
2022-11-24T02:36:50.543Z,62.55
2022-11-24T02:37:23.654Z,62.71
2022-11-24T02:37:56.773Z,62.83
2022-11-24T02:38:31.159Z,62.93
2022-11-24T02:39:05.810Z,62.95
2022-11-24T02:39:38.935Z,63.07
2022-11-24T02:40:14.514Z,63.16
2022-11-24T02:40:49.517Z,63.32
2022-11-24T02:41:24.417Z,63.48
2022-11-24T02:41:59.384Z,63.52
2022-11-24T02:42:35.553Z,63.52
2022-11-24T02:43:11.306Z,63.49
2022-11-24T02:43:50.140Z,63.66
2022-11-24T02:44:25.313Z,63.81
2022-11-24T02:45:00.200Z,63.80
2022-11-24T02:45:33.334Z,63.83
2022-11-24T02:46:07.187Z,63.84
2022-11-24T02:46:40.253Z,63.90
2022-11-24T02:47:13.725Z,63.94
2022-11-24T02:47:46.859Z,63.95
2022-11-24T02:48:19.937Z,63.96
2022-11-24T02:48:53.135Z,64.02
2022-11-24T02:49:26.201Z,64.05
2022-11-24T02:49:59.357Z,64.01
2022-11-24T02:50:32.372Z,64.00
2022-11-24T02:51:05.822Z,63.97
2022-11-24T02:51:38.959Z,63.96
2022-11-24T02:52:12.126Z,63.92
2022-11-24T02:52:45.229Z,63.94
2022-11-24T02:53:18.335Z,63.93
2022-11-24T02:53:51.477Z,63.90
2022-11-24T02:54:24.501Z,63.90
2022-11-24T02:54:57.606Z,63.94
2022-11-24T02:55:30.721Z,63.99
2022-11-24T02:56:03.769Z,64.00
2022-11-24T02:56:36.879Z,64.02
2022-11-24T02:57:10.234Z,64.08
2022-11-24T02:57:43.350Z,64.16
2022-11-24T02:58:16.466Z,64.20
2022-11-24T02:58:49.544Z,64.19
2022-11-24T02:59:22.784Z,64.17
2022-11-24T02:59:55.745Z,64.20
2022-11-24T03:00:28.954Z,64.23
2022-11-24T03:01:02.239Z,64.24
2022-11-24T03:01:35.346Z,64.32
2022-11-24T03:02:08.560Z,64.30
2022-11-24T03:02:41.775Z,64.38
2022-11-24T03:03:14.960Z,64.41
2022-11-24T03:03:48.391Z,64.38
2022-11-24T03:04:21.643Z,64.31
2022-11-24T03:04:54.739Z,64.20
2022-11-24T03:05:28.000Z,64.02
2022-11-24T03:06:01.162Z,63.65
2022-11-24T03:06:34.176Z,63.35
2022-11-24T03:07:07.352Z,63.07
2022-11-24T03:07:40.662Z,62.90
2022-11-24T03:08:13.933Z,62.80
2022-11-24T03:08:47.053Z,62.72
2022-11-24T03:09:20.463Z,62.76
2022-11-24T03:09:53.579Z,62.87
2022-11-24T03:10:26.792Z,62.95
2022-11-24T03:11:01.252Z,62.95
2022-11-24T03:11:34.251Z,62.83
2022-11-24T03:12:07.367Z,62.66
2022-11-24T03:12:40.601Z,62.44
2022-11-24T03:13:13.780Z,62.27
2022-11-24T03:13:46.901Z,62.13
2022-11-24T03:14:19.948Z,62.10
2022-11-24T03:14:53.047Z,62.09
2022-11-24T03:15:26.103Z,62.16
2022-11-24T03:15:59.262Z,62.28
2022-11-24T03:16:33.054Z,62.50
2022-11-24T03:17:06.168Z,62.74
2022-11-24T03:17:39.380Z,62.95
2022-11-24T03:18:12.533Z,63.13
2022-11-24T03:18:45.739Z,63.35
2022-11-24T03:19:18.798Z,63.55
2022-11-24T03:19:51.679Z,63.74
2022-11-24T03:20:25.182Z,63.94
2022-11-24T03:21:00.916Z,64.16
2022-11-24T03:21:36.017Z,64.39
2022-11-24T03:22:09.166Z,64.54
2022-11-24T03:22:42.325Z,64.74
2022-11-24T03:23:15.586Z,64.75
2022-11-24T03:23:48.716Z,64.73
2022-11-24T03:24:21.724Z,64.81
2022-11-24T03:24:54.738Z,64.79
2022-11-24T03:25:27.737Z,64.91
2022-11-24T03:26:07.973Z,64.99
2022-11-24T03:26:42.243Z,64.97
2022-11-24T03:27:15.244Z,65.12
2022-11-24T03:27:48.311Z,65.24
2022-11-24T03:28:21.537Z,65.30
2022-11-24T03:28:56.188Z,65.43
2022-11-24T03:29:29.242Z,65.51
2022-11-24T03:30:02.257Z,65.63
2022-11-24T03:30:35.291Z,65.73
2022-11-24T03:31:09.268Z,65.83
2022-11-24T03:31:42.279Z,65.93
2022-11-24T03:32:15.334Z,66.02
2022-11-24T03:32:48.362Z,66.07
2022-11-24T03:33:21.764Z,66.11
2022-11-24T03:33:54.856Z,66.18
2022-11-24T03:34:27.846Z,66.27
2022-11-24T03:35:01.049Z,66.38
2022-11-24T03:35:34.062Z,66.41
2022-11-24T03:36:07.775Z,66.30
2022-11-24T03:36:40.991Z,66.18
2022-11-24T03:37:14.145Z,66.09
2022-11-24T03:37:47.392Z,65.97
2022-11-24T03:38:20.522Z,65.90
2022-11-24T03:38:53.699Z,65.85
2022-11-24T03:39:29.279Z,65.86
2022-11-24T03:40:11.031Z,65.85
2022-11-24T03:40:44.108Z,65.87
2022-11-24T03:41:17.241Z,65.88
2022-11-24T03:41:51.604Z,65.89
2022-11-24T03:42:24.606Z,65.90
2022-11-24T03:42:57.593Z,65.94
2022-11-24T03:43:30.867Z,65.96
2022-11-24T03:44:03.976Z,65.88
2022-11-24T03:44:37.236Z,65.81
2022-11-24T03:45:45.341Z,65.79
2022-11-24T03:46:03.716Z,65.78
2022-11-24T03:46:37.050Z,65.73
2022-11-24T03:47:11.154Z,65.66
2022-11-24T03:47:44.187Z,65.57
2022-11-24T03:48:18.211Z,65.64
2022-11-24T03:48:51.317Z,65.65
2022-11-24T03:49:24.397Z,65.68
2022-11-24T03:49:57.391Z,65.72
2022-11-24T03:50:30.986Z,65.80
2022-11-24T03:51:04.296Z,65.86
2022-11-24T03:51:37.363Z,65.84
2022-11-24T03:52:10.348Z,65.83
2022-11-24T03:52:43.420Z,65.83
2022-11-24T03:53:16.487Z,65.85
2022-11-24T03:53:49.626Z,65.88
2022-11-24T03:54:23.002Z,65.93
2022-11-24T03:54:56.023Z,65.89
2022-11-24T03:55:28.998Z,65.90
2022-11-24T03:56:02.329Z,65.96
2022-11-24T03:56:36.005Z,65.92
2022-11-24T03:57:09.055Z,65.91
2022-11-24T03:57:42.076Z,65.83
2022-11-24T03:58:15.240Z,65.75
2022-11-24T03:58:48.239Z,65.73
2022-11-24T03:59:21.265Z,65.75
2022-11-24T03:59:54.399Z,65.80
2022-11-24T04:00:28.081Z,65.83
2022-11-24T04:01:01.443Z,65.88
2022-11-24T04:01:34.988Z,65.89
2022-11-24T04:02:08.143Z,65.87
2022-11-24T04:02:41.439Z,65.85
2022-11-24T04:03:14.668Z,65.89
2022-11-24T04:03:47.668Z,65.92
2022-11-24T04:04:20.723Z,65.91
2022-11-24T04:04:53.790Z,65.92
2022-11-24T04:05:27.140Z,65.99
2022-11-24T04:06:00.242Z,66.08
2022-11-24T04:06:33.209Z,66.09
2022-11-24T04:07:06.370Z,66.06
2022-11-24T04:07:39.825Z,66.00
2022-11-24T04:08:13.160Z,66.00
2022-11-24T04:08:46.292Z,66.01
2022-11-24T04:09:19.365Z,65.96
2022-11-24T04:09:52.488Z,65.96
2022-11-24T04:10:25.677Z,65.99
2022-11-24T04:10:59.349Z,66.01
2022-11-24T04:11:51.241Z,65.99
2022-11-24T04:12:42.876Z,65.97
2022-11-24T04:13:16.990Z,66.00
2022-11-24T04:13:50.137Z,65.96
2022-11-24T04:14:23.274Z,65.94
2022-11-24T04:14:56.344Z,65.88
2022-11-24T04:15:29.669Z,65.82
2022-11-24T04:16:05.691Z,65.78
2022-11-24T04:16:38.965Z,65.78
2022-11-24T04:17:12.016Z,65.70
2022-11-24T04:17:45.715Z,65.62
2022-11-24T04:18:19.489Z,65.50
2022-11-24T04:18:53.578Z,65.48
2022-11-24T04:19:26.727Z,65.48
2022-11-24T04:19:59.702Z,65.48
2022-11-24T04:20:33.072Z,65.45
2022-11-24T04:21:06.132Z,65.46
2022-11-24T04:21:39.173Z,65.44
2022-11-24T04:22:12.166Z,65.45
2022-11-24T04:22:45.324Z,65.44
2022-11-24T04:23:18.911Z,65.37
2022-11-24T04:23:51.918Z,65.36
2022-11-24T04:24:25.121Z,65.31
2022-11-24T04:24:58.480Z,65.26
2022-11-24T04:25:31.901Z,65.22
2022-11-24T04:26:05.215Z,65.21
2022-11-24T04:26:38.283Z,65.24
2022-11-24T04:27:11.399Z,65.28
2022-11-24T04:27:45.427Z,65.27
2022-11-24T04:28:18.634Z,65.27
2022-11-24T04:28:51.872Z,65.23
2022-11-24T04:29:24.946Z,65.32
2022-11-24T04:29:57.991Z,65.35
2022-11-24T04:30:31.758Z,65.39
2022-11-24T04:31:05.145Z,65.45
2022-11-24T04:31:38.390Z,65.54
2022-11-24T04:32:11.384Z,65.56
2022-11-24T04:32:44.591Z,65.57
2022-11-24T04:33:17.787Z,65.56
2022-11-24T04:33:50.729Z,65.52
2022-11-24T04:34:23.860Z,65.48
2022-11-24T04:34:56.800Z,65.47
2022-11-24T04:35:29.882Z,65.42
2022-11-24T04:36:02.901Z,65.43
2022-11-24T04:36:36.345Z,65.39
2022-11-24T04:37:09.741Z,65.38
2022-11-24T04:37:43.132Z,65.41
2022-11-24T04:39:23.589Z,65.40
2022-11-24T04:39:24.422Z,65.40
2022-11-24T04:39:59.802Z,65.46
2022-11-24T04:40:32.979Z,65.46
2022-11-24T04:41:06.150Z,65.41
2022-11-24T04:41:39.189Z,65.40
2022-11-24T04:42:12.742Z,65.36
2022-11-24T04:42:52.425Z,65.37
2022-11-24T04:43:25.541Z,65.36
2022-11-24T04:43:58.578Z,65.45
2022-11-24T04:44:31.901Z,65.52
2022-11-24T04:45:06.372Z,65.54
2022-11-24T04:45:39.373Z,65.57
2022-11-24T04:46:12.440Z,65.62
2022-11-24T04:46:45.670Z,65.66
2022-11-24T04:47:20.599Z,65.70
2022-11-24T04:47:53.880Z,65.72
2022-11-24T04:48:26.991Z,65.72
2022-11-24T04:49:00.039Z,65.69
2022-11-24T04:49:33.129Z,65.73
2022-11-24T04:50:07.915Z,65.79
2022-11-24T04:50:41.063Z,65.74
2022-11-24T04:51:14.742Z,65.74
2022-11-24T04:51:47.942Z,65.64
2022-11-24T04:52:22.252Z,65.64
2022-11-24T04:52:55.385Z,65.68
2022-11-24T04:53:28.405Z,65.72
2022-11-24T04:54:01.426Z,65.74
2022-11-24T04:54:34.758Z,65.72
2022-11-24T04:55:08.449Z,65.76
2022-11-24T04:55:41.508Z,65.87
2022-11-24T04:56:14.726Z,65.88
2022-11-24T04:56:51.627Z,65.95
2022-11-24T04:57:26.005Z,65.96
2022-11-24T04:57:59.062Z,65.98
2022-11-24T04:58:32.664Z,66.02
2022-11-24T04:59:08.467Z,66.03
2022-11-24T04:59:41.672Z,66.08
2022-11-24T05:00:15.174Z,66.12
2022-11-24T05:00:48.522Z,66.15
2022-11-24T05:01:21.649Z,66.17
2022-11-24T05:01:54.730Z,66.20
2022-11-24T05:02:27.893Z,66.29
2022-11-24T05:03:01.083Z,66.32
2022-11-24T05:03:34.583Z,66.37
2022-11-24T05:04:07.731Z,66.46
2022-11-24T05:04:41.018Z,66.51
2022-11-24T05:05:14.181Z,66.56
2022-11-24T05:05:47.269Z,66.58
2022-11-24T05:06:20.732Z,66.60
2022-11-24T05:06:53.801Z,66.65
2022-11-24T05:07:27.053Z,66.68
2022-11-24T05:08:00.601Z,66.66
2022-11-24T05:08:33.939Z,66.62
2022-11-24T05:09:07.709Z,66.63
2022-11-24T05:10:00.748Z,66.62
2022-11-24T05:10:37.600Z,66.61
2022-11-24T05:11:10.667Z,66.58
2022-11-24T05:11:43.998Z,66.56
2022-11-24T05:12:17.420Z,66.62
2022-11-24T05:12:57.220Z,66.63
2022-11-24T05:13:30.319Z,66.58
2022-11-24T05:14:03.601Z,66.57
2022-11-24T05:14:36.597Z,66.56
2022-11-24T05:15:10.251Z,66.55
2022-11-24T05:15:43.630Z,66.53
2022-11-24T05:16:17.069Z,66.49
2022-11-24T05:16:50.448Z,66.44
2022-11-24T05:17:23.619Z,66.44
2022-11-24T05:17:57.348Z,66.43
2022-11-24T05:18:30.472Z,66.39
2022-11-24T05:19:03.795Z,66.40
2022-11-24T05:19:37.043Z,66.39
2022-11-24T05:20:10.486Z,66.39
2022-11-24T05:20:46.712Z,66.37
2022-11-24T05:21:19.808Z,66.36
2022-11-24T05:21:54.668Z,66.36
2022-11-24T05:22:31.935Z,66.32
2022-11-24T05:23:06.267Z,66.35
2022-11-24T05:23:39.699Z,66.38
2022-11-24T05:24:12.843Z,66.38
2022-11-24T05:24:46.090Z,66.38
2022-11-24T05:25:19.160Z,66.38
2022-11-24T05:25:52.411Z,66.35
2022-11-24T05:26:26.337Z,66.36
2022-11-24T05:26:59.638Z,66.34
2022-11-24T05:27:32.911Z,66.32
2022-11-24T05:28:08.971Z,66.34
2022-11-24T05:28:42.352Z,66.31
2022-11-24T05:29:15.754Z,66.26
2022-11-24T05:29:48.876Z,66.26
2022-11-24T05:30:22.105Z,66.24
2022-11-24T05:30:58.767Z,66.26
2022-11-24T05:31:32.028Z,66.22
2022-11-24T05:32:05.458Z,66.18
2022-11-24T05:32:38.757Z,66.16
2022-11-24T05:33:19.374Z,66.17
2022-11-24T05:33:52.692Z,66.20
2022-11-24T05:34:25.875Z,66.17
2022-11-24T05:35:00.858Z,66.23
2022-11-24T05:35:34.927Z,66.26
2022-11-24T05:36:08.283Z,66.30
2022-11-24T05:36:53.453Z,66.31
2022-11-24T05:37:28.623Z,66.28
2022-11-24T05:38:01.732Z,66.27
2022-11-24T05:38:35.908Z,66.26
2022-11-24T05:39:09.124Z,66.26
2022-11-24T05:39:42.258Z,66.24
2022-11-24T05:40:15.730Z,66.20
2022-11-24T05:40:48.821Z,66.13
2022-11-24T05:41:22.004Z,66.08
2022-11-24T05:41:55.096Z,66.06
2022-11-24T05:42:47.809Z,65.99
2022-11-24T05:43:21.349Z,65.97
2022-11-24T05:43:54.535Z,65.99
2022-11-24T05:44:27.758Z,65.97
2022-11-24T05:45:00.896Z,66.00
2022-11-24T05:45:34.136Z,66.03
2022-11-24T05:46:07.337Z,66.06
2022-11-24T05:46:40.571Z,66.09
2022-11-24T05:47:13.923Z,66.13
2022-11-24T05:47:47.675Z,66.08
2022-11-24T05:48:21.166Z,66.04
2022-11-24T05:48:54.263Z,66.07
2022-11-24T05:49:27.408Z,66.09
2022-11-24T05:50:00.889Z,66.10
2022-11-24T05:50:34.832Z,66.08
2022-11-24T05:51:09.544Z,66.04
2022-11-24T05:51:42.819Z,66.10
2022-11-24T05:52:16.459Z,66.11
2022-11-24T05:52:50.023Z,66.18
2022-11-24T05:53:23.256Z,66.24
2022-11-24T05:53:56.511Z,66.31
2022-11-24T05:54:29.890Z,66.40
2022-11-24T05:55:03.215Z,66.40
2022-11-24T05:55:36.804Z,66.41
2022-11-24T05:56:09.911Z,66.43
2022-11-24T05:56:43.429Z,66.48
2022-11-24T05:57:17.255Z,66.55
2022-11-24T05:57:57.530Z,66.60
2022-11-24T05:58:30.923Z,66.57
2022-11-24T05:59:09.431Z,66.63
2022-11-24T05:59:42.950Z,66.58
2022-11-24T06:00:18.414Z,66.64
2022-11-24T06:00:51.597Z,66.64
2022-11-24T06:01:24.709Z,66.71
2022-11-24T06:01:58.092Z,66.75
2022-11-24T06:02:31.374Z,66.81
2022-11-24T06:03:04.931Z,66.84
2022-11-24T06:03:38.346Z,66.87
2022-11-24T06:04:11.445Z,66.90
2022-11-24T06:04:44.736Z,66.90
2022-11-24T06:05:18.296Z,66.94
2022-11-24T06:05:51.323Z,66.95
2022-11-24T06:06:24.500Z,66.99
2022-11-24T06:06:57.622Z,67.04
2022-11-24T06:07:30.807Z,67.06
2022-11-24T06:08:04.267Z,67.05
2022-11-24T06:08:37.621Z,67.13
2022-11-24T06:09:11.027Z,67.16
2022-11-24T06:09:44.259Z,67.19
2022-11-24T06:10:17.840Z,67.23
2022-11-24T06:10:50.904Z,67.26
2022-11-24T06:11:24.078Z,67.28
2022-11-24T06:11:57.094Z,67.33
2022-11-24T06:12:30.239Z,67.37
2022-11-24T06:13:07.045Z,67.44
2022-11-24T06:13:42.149Z,67.47
2022-11-24T06:14:16.281Z,67.52
2022-11-24T06:14:50.377Z,67.58
2022-11-24T06:15:24.223Z,67.67
2022-11-24T06:15:59.192Z,67.72
2022-11-24T06:16:32.577Z,67.72
2022-11-24T06:17:06.054Z,67.70
2022-11-24T06:17:39.859Z,67.68
2022-11-24T06:18:12.988Z,67.68
2022-11-24T06:18:46.214Z,67.68
2022-11-24T06:19:19.334Z,67.70
2022-11-24T06:19:52.302Z,67.74
2022-11-24T06:20:31.166Z,67.76
2022-11-24T06:21:11.130Z,67.76
2022-11-24T06:21:44.840Z,67.76
2022-11-24T06:22:19.558Z,67.84
2022-11-24T06:22:53.222Z,67.88
2022-11-24T06:23:26.336Z,67.90
2022-11-24T06:23:59.591Z,67.93
2022-11-24T06:24:32.883Z,67.94
2022-11-24T06:25:06.443Z,67.98
2022-11-24T06:25:39.902Z,68.03
2022-11-24T06:26:13.015Z,68.08
2022-11-24T06:26:46.267Z,68.12
2022-11-24T06:27:19.763Z,68.13
2022-11-24T06:27:52.854Z,68.15
2022-11-24T06:28:26.609Z,68.18
2022-11-24T06:28:59.790Z,68.19
2022-11-24T06:29:33.059Z,68.21
2022-11-24T06:30:06.395Z,68.23
2022-11-24T06:30:39.588Z,68.22
2022-11-24T06:31:12.810Z,68.18
2022-11-24T06:31:46.450Z,68.20
2022-11-24T06:32:19.848Z,68.24
2022-11-24T06:32:56.425Z,68.21
2022-11-24T06:33:33.668Z,68.13
2022-11-24T06:34:07.824Z,68.07
2022-11-24T06:34:40.922Z,68.00
2022-11-24T06:35:14.107Z,67.93
2022-11-24T06:35:47.343Z,67.86
2022-11-24T06:36:20.736Z,67.81
2022-11-24T06:36:53.750Z,67.82
2022-11-24T06:37:26.871Z,67.81
2022-11-24T06:38:00.104Z,67.74
2022-11-24T06:38:33.281Z,67.66
2022-11-24T06:39:06.980Z,67.66
2022-11-24T06:39:40.193Z,67.65
2022-11-24T06:40:13.533Z,67.63
2022-11-24T06:40:46.935Z,67.62
2022-11-24T06:41:20.250Z,67.63
2022-11-24T06:41:53.731Z,67.60
2022-11-24T06:42:26.860Z,67.55
2022-11-24T06:43:00.459Z,67.46
2022-11-24T06:43:34.150Z,67.45
2022-11-24T06:44:07.327Z,67.45
2022-11-24T06:44:40.604Z,67.47
2022-11-24T06:45:13.836Z,67.50
2022-11-24T06:45:51.619Z,67.50
2022-11-24T06:46:24.888Z,67.42
2022-11-24T06:46:58.232Z,67.46
2022-11-24T06:47:31.470Z,67.45
2022-11-24T06:48:04.923Z,67.43
2022-11-24T06:48:38.232Z,67.44
2022-11-24T06:49:11.482Z,67.47
2022-11-24T06:49:44.563Z,67.46
2022-11-24T06:50:17.869Z,67.45
2022-11-24T06:50:51.460Z,67.48
2022-11-24T06:51:26.209Z,67.50
2022-11-24T06:51:59.433Z,67.53
2022-11-24T06:52:32.765Z,67.53
2022-11-24T06:53:05.922Z,67.51
2022-11-24T06:53:40.454Z,67.50
2022-11-24T06:54:15.055Z,67.47
2022-11-24T06:54:48.369Z,67.48
2022-11-24T06:55:21.607Z,67.46
2022-11-24T06:55:57.557Z,67.45
2022-11-24T06:56:30.709Z,67.46
2022-11-24T06:57:03.935Z,67.46
2022-11-24T06:57:37.447Z,67.46
2022-11-24T06:58:10.874Z,67.43
2022-11-24T06:58:45.919Z,67.30
2022-11-24T06:59:20.184Z,67.35
2022-11-24T06:59:53.410Z,67.36
2022-11-24T07:00:29.524Z,67.42
2022-11-24T07:01:02.776Z,67.43
2022-11-24T07:01:36.124Z,67.40
2022-11-24T07:02:10.639Z,67.35
2022-11-24T07:02:46.071Z,67.32
2022-11-24T07:03:20.148Z,67.30
2022-11-24T07:03:54.316Z,67.29
2022-11-24T07:04:27.637Z,67.26
2022-11-24T07:05:00.818Z,67.23
2022-11-24T07:05:34.084Z,67.20
2022-11-24T07:06:07.272Z,67.24
2022-11-24T07:06:41.805Z,67.26
2022-11-24T07:07:15.214Z,67.27
2022-11-24T07:07:50.778Z,67.28
2022-11-24T07:08:24.308Z,67.28
2022-11-24T07:08:57.506Z,67.31
2022-11-24T07:09:30.476Z,67.32
2022-11-24T07:10:03.701Z,67.32
2022-11-24T07:10:36.923Z,67.38
2022-11-24T07:11:11.614Z,67.35
2022-11-24T07:11:45.033Z,67.30
2022-11-24T07:12:18.207Z,67.26
2022-11-24T07:12:51.471Z,67.20
2022-11-24T07:13:24.644Z,67.14
2022-11-24T07:14:00.069Z,67.04
2022-11-24T07:14:34.004Z,66.91
2022-11-24T07:15:07.755Z,66.75
2022-11-24T07:15:40.844Z,66.67
2022-11-24T07:16:14.249Z,66.61
2022-11-24T07:16:47.464Z,66.60
2022-11-24T07:17:20.698Z,66.61
2022-11-24T07:17:53.835Z,66.59
2022-11-24T07:18:27.073Z,66.49
2022-11-24T07:19:00.532Z,66.38
2022-11-24T07:19:33.765Z,66.26
2022-11-24T07:20:08.089Z,66.21